sensor_id;sensor_type;location;lat;lon;timestamp;P1;durP1;ratioP1;P2;durP2;ratioP2
32788;SDS011;19141;48.980;8.410;2022-09-03T04:22:32;4.07;;;2.55;;
32788;SDS011;19141;48.980;8.410;2022-09-03T04:24:57;4.97;;;2.72;;
32788;SDS011;19141;48.980;8.410;2022-09-03T04:27:23;2.20;;;1.98;;
32788;SDS011;19141;48.980;8.410;2022-09-03T04:29:48;4.32;;;2.78;;
32788;SDS011;19141;48.980;8.410;2022-09-03T04:32:14;3.35;;;2.42;;
32788;SDS011;19141;48.980;8.410;2022-09-03T04:34:58;3.17;;;2.58;;
32788;SDS011;19141;48.980;8.410;2022-09-03T04:37:23;2.90;;;2.58;;
32788;SDS011;19141;48.980;8.410;2022-09-03T04:39:49;4.22;;;2.83;;
32788;SDS011;19141;48.980;8.410;2022-09-03T04:42:14;4.90;;;2.65;;
32788;SDS011;19141;48.980;8.410;2022-09-03T04:44:40;4.13;;;2.58;;
32788;SDS011;19141;48.980;8.410;2022-09-03T04:47:05;3.03;;;2.20;;
32788;SDS011;19141;48.980;8.410;2022-09-03T04:49:31;3.75;;;2.40;;
32788;SDS011;19141;48.980;8.410;2022-09-03T04:51:56;3.70;;;2.72;;
32788;SDS011;19141;48.980;8.410;2022-09-03T04:54:22;4.78;;;2.35;;
32788;SDS011;19141;48.980;8.410;2022-09-03T04:56:47;4.10;;;3.00;;
32788;SDS011;19141;48.980;8.410;2022-09-03T04:59:13;2.85;;;2.38;;
32788;SDS011;19141;48.980;8.410;2022-09-03T05:01:39;7.78;;;3.90;;
32788;SDS011;19141;48.980;8.410;2022-09-03T05:04:05;11.50;;;4.88;;
32788;SDS011;19141;48.980;8.410;2022-09-03T05:06:32;5.32;;;2.42;;
32788;SDS011;19141;48.980;8.410;2022-09-03T05:08:58;3.92;;;2.95;;
32788;SDS011;19141;48.980;8.410;2022-09-03T05:11:24;2.92;;;2.38;;
32788;SDS011;19141;48.980;8.410;2022-09-03T05:13:52;4.10;;;3.15;;
32788;SDS011;19141;48.980;8.410;2022-09-03T05:16:19;3.70;;;2.80;;
32788;SDS011;19141;48.980;8.410;2022-09-03T05:18:46;5.00;;;2.77;;
32788;SDS011;19141;48.980;8.410;2022-09-03T05:21:16;3.35;;;2.33;;
32788;SDS011;19141;48.980;8.410;2022-09-03T05:23:47;4.22;;;2.55;;
32788;SDS011;19141;48.980;8.410;2022-09-03T05:26:18;2.50;;;2.08;;
32788;SDS011;19141;48.980;8.410;2022-09-03T05:28:45;3.20;;;2.45;;
32788;SDS011;19141;48.980;8.410;2022-09-03T05:31:13;3.25;;;2.65;;
32788;SDS011;19141;48.980;8.410;2022-09-03T05:33:41;3.83;;;2.47;;
32788;SDS011;19141;48.980;8.410;2022-09-03T05:36:10;3.17;;;2.88;;
32788;SDS011;19141;48.980;8.410;2022-09-03T05:38:37;3.28;;;2.53;;
32788;SDS011;19141;48.980;8.410;2022-09-03T05:41:04;3.78;;;2.55;;
32788;SDS011;19141;48.980;8.410;2022-09-03T05:43:32;3.67;;;2.80;;
32788;SDS011;19141;48.980;8.410;2022-09-03T05:46:02;3.70;;;2.40;;
32788;SDS011;19141;48.980;8.410;2022-09-03T05:48:30;3.05;;;2.53;;
32788;SDS011;19141;48.980;8.410;2022-09-03T05:51:00;5.10;;;2.53;;
32788;SDS011;19141;48.980;8.410;2022-09-03T05:53:31;4.22;;;3.13;;
32788;SDS011;19141;48.980;8.410;2022-09-03T05:55:59;3.60;;;2.25;;
32788;SDS011;19141;48.980;8.410;2022-09-03T05:58:29;3.13;;;2.47;;
32788;SDS011;19141;48.980;8.410;2022-09-03T06:00:58;3.05;;;2.50;;
32788;SDS011;19141;48.980;8.410;2022-09-03T06:03:24;4.00;;;2.88;;
32788;SDS011;19141;48.980;8.410;2022-09-03T06:05:53;3.40;;;2.70;;
32788;SDS011;19141;48.980;8.410;2022-09-03T06:08:19;4.85;;;2.45;;
32788;SDS011;19141;48.980;8.410;2022-09-03T06:10:46;2.83;;;2.53;;
32788;SDS011;19141;48.980;8.410;2022-09-03T06:13:12;2.65;;;2.45;;
32788;SDS011;19141;48.980;8.410;2022-09-03T06:15:37;3.08;;;2.30;;
32788;SDS011;19141;48.980;8.410;2022-09-03T06:18:03;4.13;;;2.72;;
32788;SDS011;19141;48.980;8.410;2022-09-03T06:20:29;3.50;;;2.78;;
32788;SDS011;19141;48.980;8.410;2022-09-03T06:22:56;3.38;;;2.63;;
32788;SDS011;19141;48.980;8.410;2022-09-03T06:25:22;3.50;;;2.80;;
32788;SDS011;19141;48.980;8.410;2022-09-03T06:27:47;4.22;;;2.70;;
32788;SDS011;19141;48.980;8.410;2022-09-03T06:30:13;4.10;;;2.80;;
32788;SDS011;19141;48.980;8.410;2022-09-03T06:32:44;3.13;;;2.55;;
32788;SDS011;19141;48.980;8.410;2022-09-03T06:35:10;5.25;;;2.75;;
32788;SDS011;19141;48.980;8.410;2022-09-03T06:37:39;3.97;;;2.30;;
32788;SDS011;19141;48.980;8.410;2022-09-03T06:40:05;3.67;;;2.72;;
32788;SDS011;19141;48.980;8.410;2022-09-03T06:44:58;4.03;;;2.85;;
32788;SDS011;19141;48.980;8.410;2022-09-03T06:47:24;3.85;;;2.60;;
32788;SDS011;19141;48.980;8.410;2022-09-03T06:49:49;6.07;;;3.30;;
32788;SDS011;19141;48.980;8.410;2022-09-03T06:52:15;4.05;;;2.50;;
32788;SDS011;19141;48.980;8.410;2022-09-03T06:54:40;5.40;;;2.97;;
32788;SDS011;19141;48.980;8.410;2022-09-03T06:57:06;4.95;;;3.28;;
32788;SDS011;19141;48.980;8.410;2022-09-03T06:59:31;4.57;;;2.75;;
32788;SDS011;19141;48.980;8.410;2022-09-03T07:01:57;4.70;;;2.72;;
32788;SDS011;19141;48.980;8.410;2022-09-03T07:04:24;3.88;;;2.58;;
32788;SDS011;19141;48.980;8.410;2022-09-03T07:06:51;4.33;;;2.53;;
32788;SDS011;19141;48.980;8.410;2022-09-03T07:09:17;4.03;;;2.55;;
32788;SDS011;19141;48.980;8.410;2022-09-03T07:11:43;5.20;;;3.20;;
32788;SDS011;19141;48.980;8.410;2022-09-03T07:14:11;4.40;;;2.75;;
32788;SDS011;19141;48.980;8.410;2022-09-03T07:16:37;4.25;;;2.97;;
32788;SDS011;19141;48.980;8.410;2022-09-03T07:19:03;5.25;;;3.35;;
32788;SDS011;19141;48.980;8.410;2022-09-03T07:21:30;5.13;;;3.00;;
32788;SDS011;19141;48.980;8.410;2022-09-03T07:24:05;5.78;;;2.97;;
32788;SDS011;19141;48.980;8.410;2022-09-03T07:26:40;5.10;;;3.22;;
32788;SDS011;19141;48.980;8.410;2022-09-03T07:29:13;5.38;;;3.58;;
32788;SDS011;19141;48.980;8.410;2022-09-03T07:31:41;5.53;;;3.55;;
32788;SDS011;19141;48.980;8.410;2022-09-03T07:34:08;4.13;;;2.90;;
32788;SDS011;19141;48.980;8.410;2022-09-03T07:36:43;4.93;;;3.40;;
32788;SDS011;19141;48.980;8.410;2022-09-03T07:39:11;4.47;;;2.97;;
32788;SDS011;19141;48.980;8.410;2022-09-03T07:41:38;6.22;;;3.88;;
32788;SDS011;19141;48.980;8.410;2022-09-03T07:44:07;5.43;;;3.40;;
32788;SDS011;19141;48.980;8.410;2022-09-03T07:46:34;6.95;;;3.13;;
32788;SDS011;19141;48.980;8.410;2022-09-03T07:49:01;7.00;;;3.50;;
32788;SDS011;19141;48.980;8.410;2022-09-03T07:51:32;6.00;;;3.75;;
32788;SDS011;19141;48.980;8.410;2022-09-03T07:54:00;4.88;;;3.50;;
32788;SDS011;19141;48.980;8.410;2022-09-03T07:56:28;7.10;;;3.80;;
32788;SDS011;19141;48.980;8.410;2022-09-03T07:58:56;6.78;;;3.30;;
32788;SDS011;19141;48.980;8.410;2022-09-03T08:01:23;6.70;;;3.63;;
32788;SDS011;19141;48.980;8.410;2022-09-03T08:03:51;7.15;;;3.97;;
32788;SDS011;19141;48.980;8.410;2022-09-03T08:06:18;7.67;;;3.83;;
32788;SDS011;19141;48.980;8.410;2022-09-03T08:11:12;10.90;;;4.13;;
32788;SDS011;19141;48.980;8.410;2022-09-03T08:13:39;7.97;;;3.90;;
32788;SDS011;19141;48.980;8.410;2022-09-03T08:16:08;8.20;;;4.13;;
32788;SDS011;19141;48.980;8.410;2022-09-03T08:18:35;6.60;;;4.23;;
32788;SDS011;19141;48.980;8.410;2022-09-03T08:21:03;7.32;;;3.92;;
32788;SDS011;19141;48.980;8.410;2022-09-03T08:23:31;7.90;;;3.97;;
32788;SDS011;19141;48.980;8.410;2022-09-03T08:25:58;5.25;;;3.75;;
32788;SDS011;19141;48.980;8.410;2022-09-03T08:28:25;6.38;;;3.60;;
32788;SDS011;19141;48.980;8.410;2022-09-03T08:30:51;4.88;;;3.10;;
32788;SDS011;19141;48.980;8.410;2022-09-03T08:33:17;6.97;;;4.15;;
32788;SDS011;19141;48.980;8.410;2022-09-03T08:36:10;6.07;;;4.03;;
32788;SDS011;19141;48.980;8.410;2022-09-03T08:38:38;5.72;;;3.95;;
32788;SDS011;19141;48.980;8.410;2022-09-03T08:41:06;8.65;;;3.63;;
32788;SDS011;19141;48.980;8.410;2022-09-03T08:46:15;8.77;;;4.55;;
32788;SDS011;19141;48.980;8.410;2022-09-03T08:48:41;6.50;;;4.38;;
32788;SDS011;19141;48.980;8.410;2022-09-03T08:51:06;6.95;;;4.32;;
32788;SDS011;19141;48.980;8.410;2022-09-03T08:53:39;12.30;;;4.80;;
32788;SDS011;19141;48.980;8.410;2022-09-03T08:56:16;8.55;;;4.78;;
32788;SDS011;19141;48.980;8.410;2022-09-03T08:58:48;8.57;;;5.00;;
32788;SDS011;19141;48.980;8.410;2022-09-03T09:01:22;7.53;;;4.38;;
32788;SDS011;19141;48.980;8.410;2022-09-03T09:06:55;7.07;;;4.50;;
32788;SDS011;19141;48.980;8.410;2022-09-03T09:09:37;9.07;;;4.78;;
32788;SDS011;19141;48.980;8.410;2022-09-03T09:12:12;6.25;;;4.38;;
32788;SDS011;19141;48.980;8.410;2022-09-03T09:20:39;6.68;;;4.38;;
32788;SDS011;19141;48.980;8.410;2022-09-03T09:23:12;7.65;;;4.43;;
32788;SDS011;19141;48.980;8.410;2022-09-03T09:25:47;5.75;;;3.90;;
32788;SDS011;19141;48.980;8.410;2022-09-03T09:28:18;7.97;;;4.43;;
32788;SDS011;19141;48.980;8.410;2022-09-03T09:30:47;6.93;;;4.07;;
32788;SDS011;19141;48.980;8.410;2022-09-03T09:33:15;6.53;;;3.95;;
32788;SDS011;19141;48.980;8.410;2022-09-03T09:35:42;6.70;;;3.80;;
32788;SDS011;19141;48.980;8.410;2022-09-03T09:38:09;8.25;;;4.80;;
32788;SDS011;19141;48.980;8.410;2022-09-03T09:40:36;6.22;;;3.97;;
32788;SDS011;19141;48.980;8.410;2022-09-03T09:43:15;8.98;;;3.95;;
32788;SDS011;19141;48.980;8.410;2022-09-03T09:45:51;8.43;;;5.05;;
32788;SDS011;19141;48.980;8.410;2022-09-03T09:50:43;10.32;;;4.88;;
32788;SDS011;19141;48.980;8.410;2022-09-03T09:53:09;8.82;;;4.40;;
32788;SDS011;19141;48.980;8.410;2022-09-03T09:55:55;8.02;;;4.18;;
32788;SDS011;19141;48.980;8.410;2022-09-03T09:58:26;7.78;;;4.03;;
32788;SDS011;19141;48.980;8.410;2022-09-03T10:00:55;6.70;;;4.57;;
32788;SDS011;19141;48.980;8.410;2022-09-03T10:03:55;9.07;;;4.57;;
32788;SDS011;19141;48.980;8.410;2022-09-03T10:06:25;7.13;;;3.97;;
32788;SDS011;19141;48.980;8.410;2022-09-03T10:09:13;5.85;;;3.03;;
32788;SDS011;19141;48.980;8.410;2022-09-03T10:11:43;6.15;;;3.42;;
32788;SDS011;19141;48.980;8.410;2022-09-03T10:14:17;7.47;;;3.90;;
32788;SDS011;19141;48.980;8.410;2022-09-03T10:16:43;9.18;;;3.63;;
32788;SDS011;19141;48.980;8.410;2022-09-03T10:22:28;5.65;;;3.50;;
32788;SDS011;19141;48.980;8.410;2022-09-03T10:24:57;5.65;;;3.05;;
32788;SDS011;19141;48.980;8.410;2022-09-03T10:27:24;4.15;;;2.95;;
32788;SDS011;19141;48.980;8.410;2022-09-03T10:29:50;6.85;;;3.03;;
32788;SDS011;19141;48.980;8.410;2022-09-03T10:34:59;5.63;;;3.33;;
32788;SDS011;19141;48.980;8.410;2022-09-03T10:38:11;4.57;;;3.47;;
32788;SDS011;19141;48.980;8.410;2022-09-03T10:56:18;5.93;;;3.30;;
32788;SDS011;19141;48.980;8.410;2022-09-03T11:04:40;5.45;;;3.22;;
32788;SDS011;19141;48.980;8.410;2022-09-03T11:07:16;3.47;;;3.03;;
32788;SDS011;19141;48.980;8.410;2022-09-03T11:09:47;5.03;;;2.92;;
32788;SDS011;19141;48.980;8.410;2022-09-03T11:12:26;4.40;;;3.15;;
32788;SDS011;19141;48.980;8.410;2022-09-03T11:14:59;5.70;;;3.03;;
32788;SDS011;19141;48.980;8.410;2022-09-03T11:17:32;6.32;;;3.22;;
32788;SDS011;19141;48.980;8.410;2022-09-03T11:20:22;4.82;;;3.25;;
32788;SDS011;19141;48.980;8.410;2022-09-03T11:22:50;5.65;;;3.28;;
32788;SDS011;19141;48.980;8.410;2022-09-03T11:25:21;7.20;;;3.28;;
32788;SDS011;19141;48.980;8.410;2022-09-03T11:28:00;5.78;;;2.42;;
32788;SDS011;19141;48.980;8.410;2022-09-03T11:30:55;3.88;;;2.78;;
32788;SDS011;19141;48.980;8.410;2022-09-03T11:33:46;3.90;;;2.65;;
32788;SDS011;19141;48.980;8.410;2022-09-03T11:36:28;6.93;;;2.95;;
32788;SDS011;19141;48.980;8.410;2022-09-03T11:38:56;4.78;;;3.10;;
32788;SDS011;19141;48.980;8.410;2022-09-03T11:43:51;5.22;;;3.15;;
32788;SDS011;19141;48.980;8.410;2022-09-03T11:48:47;5.57;;;3.33;;
32788;SDS011;19141;48.980;8.410;2022-09-03T11:51:35;3.90;;;3.00;;
32788;SDS011;19141;48.980;8.410;2022-09-03T11:54:30;4.05;;;2.70;;
32788;SDS011;19141;48.980;8.410;2022-09-03T11:57:14;4.03;;;2.97;;
32788;SDS011;19141;48.980;8.410;2022-09-03T11:59:40;4.55;;;2.83;;
32788;SDS011;19141;48.980;8.410;2022-09-03T12:04:44;3.25;;;2.53;;
32788;SDS011;19141;48.980;8.410;2022-09-03T12:10:16;3.60;;;2.80;;
32788;SDS011;19141;48.980;8.410;2022-09-03T12:15:54;3.83;;;2.67;;
32788;SDS011;19141;48.980;8.410;2022-09-03T12:18:32;3.03;;;2.38;;
32788;SDS011;19141;48.980;8.410;2022-09-03T12:23:32;3.45;;;2.33;;
32788;SDS011;19141;48.980;8.410;2022-09-03T12:25:59;2.85;;;2.35;;
32788;SDS011;19141;48.980;8.410;2022-09-03T12:28:29;3.47;;;2.83;;
32788;SDS011;19141;48.980;8.410;2022-09-03T12:31:04;3.75;;;2.47;;
32788;SDS011;19141;48.980;8.410;2022-09-03T12:36:19;3.28;;;2.25;;
32788;SDS011;19141;48.980;8.410;2022-09-03T12:38:47;2.95;;;2.05;;
32788;SDS011;19141;48.980;8.410;2022-09-03T12:41:19;3.75;;;2.42;;
32788;SDS011;19141;48.980;8.410;2022-09-03T12:43:56;2.70;;;2.20;;
32788;SDS011;19141;48.980;8.410;2022-09-03T12:46:27;3.03;;;2.35;;
32788;SDS011;19141;48.980;8.410;2022-09-03T12:48:54;2.55;;;2.00;;
32788;SDS011;19141;48.980;8.410;2022-09-03T12:51:29;6.45;;;2.53;;
32788;SDS011;19141;48.980;8.410;2022-09-03T12:53:56;4.10;;;2.05;;
32788;SDS011;19141;48.980;8.410;2022-09-03T12:56:22;2.20;;;2.00;;
32788;SDS011;19141;48.980;8.410;2022-09-03T12:58:55;3.47;;;2.00;;
32788;SDS011;19141;48.980;8.410;2022-09-03T13:01:26;1.83;;;1.58;;
32788;SDS011;19141;48.980;8.410;2022-09-03T13:04:03;2.10;;;1.40;;
32788;SDS011;19141;48.980;8.410;2022-09-03T13:06:38;2.90;;;1.80;;
32788;SDS011;19141;48.980;8.410;2022-09-03T13:09:13;2.55;;;1.95;;
32788;SDS011;19141;48.980;8.410;2022-09-03T13:11:40;2.88;;;2.03;;
32788;SDS011;19141;48.980;8.410;2022-09-03T13:14:12;2.17;;;1.95;;
32788;SDS011;19141;48.980;8.410;2022-09-03T13:24:55;1.75;;;1.30;;
32788;SDS011;19141;48.980;8.410;2022-09-03T13:27:30;2.20;;;1.20;;
32788;SDS011;19141;48.980;8.410;2022-09-03T13:30:08;1.45;;;1.17;;
32788;SDS011;19141;48.980;8.410;2022-09-03T13:32:45;1.48;;;1.10;;
32788;SDS011;19141;48.980;8.410;2022-09-03T13:38:38;0.82;;;0.80;;
32788;SDS011;19141;48.980;8.410;2022-09-03T13:41:16;1.20;;;0.60;;
32788;SDS011;19141;48.980;8.410;2022-09-03T13:44:09;0.70;;;0.52;;
32788;SDS011;19141;48.980;8.410;2022-09-03T13:46:58;0.32;;;0.30;;
32788;SDS011;19141;48.980;8.410;2022-09-03T13:49:29;0.38;;;0.38;;
32788;SDS011;19141;48.980;8.410;2022-09-03T13:52:26;0.40;;;0.40;;
32788;SDS011;19141;48.980;8.410;2022-09-03T13:55:24;0.80;;;0.55;;
32788;SDS011;19141;48.980;8.410;2022-09-03T14:00:43;2.28;;;0.80;;
32788;SDS011;19141;48.980;8.410;2022-09-03T14:11:34;0.75;;;0.50;;
32788;SDS011;19141;48.980;8.410;2022-09-03T14:14:12;0.50;;;0.43;;
32788;SDS011;19141;48.980;8.410;2022-09-03T14:16:47;0.85;;;0.50;;
32788;SDS011;19141;48.980;8.410;2022-09-03T14:19:22;0.30;;;0.30;;
32788;SDS011;19141;48.980;8.410;2022-09-03T14:22:00;0.88;;;0.40;;
32788;SDS011;19141;48.980;8.410;2022-09-03T14:24:54;0.20;;;0.20;;
32788;SDS011;19141;48.980;8.410;2022-09-03T14:27:29;0.63;;;0.30;;
32788;SDS011;19141;48.980;8.410;2022-09-03T14:30:06;0.40;;;0.40;;
32788;SDS011;19141;48.980;8.410;2022-09-03T14:32:57;0.52;;;0.40;;
32788;SDS011;19141;48.980;8.410;2022-09-03T14:47:12;0.57;;;0.45;;
32788;SDS011;19141;48.980;8.410;2022-09-03T14:49:50;0.40;;;0.40;;
32788;SDS011;19141;48.980;8.410;2022-09-03T14:52:48;0.40;;;0.35;;
32788;SDS011;19141;48.980;8.410;2022-09-03T15:01:34;0.40;;;0.32;;
32788;SDS011;19141;48.980;8.410;2022-09-03T15:04:18;0.95;;;0.52;;
32788;SDS011;19141;48.980;8.410;2022-09-03T15:12:36;1.45;;;0.82;;
32788;SDS011;19141;48.980;8.410;2022-09-03T15:15:09;0.40;;;0.40;;
32788;SDS011;19141;48.980;8.410;2022-09-03T15:20:48;0.22;;;0.22;;
32788;SDS011;19141;48.980;8.410;2022-09-03T15:37:12;0.32;;;0.30;;
32788;SDS011;19141;48.980;8.410;2022-09-03T15:39:44;0.70;;;0.60;;
32788;SDS011;19141;48.980;8.410;2022-09-03T15:42:16;0.77;;;0.32;;
32788;SDS011;19141;48.980;8.410;2022-09-03T15:44:48;0.88;;;0.60;;
32788;SDS011;19141;48.980;8.410;2022-09-03T15:47:30;0.70;;;0.45;;
32788;SDS011;19141;48.980;8.410;2022-09-03T15:50:34;0.95;;;0.60;;
32788;SDS011;19141;48.980;8.410;2022-09-03T15:53:20;1.10;;;0.63;;
32788;SDS011;19141;48.980;8.410;2022-09-03T15:58:49;1.27;;;0.68;;
32788;SDS011;19141;48.980;8.410;2022-09-03T16:06:19;0.60;;;0.47;;
32788;SDS011;19141;48.980;8.410;2022-09-03T16:11:58;1.05;;;0.60;;
32788;SDS011;19141;48.980;8.410;2022-09-03T16:14:36;1.08;;;0.80;;
32788;SDS011;19141;48.980;8.410;2022-09-03T16:20:05;0.55;;;0.40;;
32788;SDS011;19141;48.980;8.410;2022-09-03T16:22:49;0.90;;;0.52;;
32788;SDS011;19141;48.980;8.410;2022-09-03T16:25:24;0.90;;;0.60;;
32788;SDS011;19141;48.980;8.410;2022-09-03T16:33:22;0.50;;;0.50;;
32788;SDS011;19141;48.980;8.410;2022-09-03T16:38:59;1.08;;;0.82;;
32788;SDS011;19141;48.980;8.410;2022-09-03T16:41:54;0.80;;;0.70;;
32788;SDS011;19141;48.980;8.410;2022-09-03T16:47:49;0.50;;;0.50;;
32788;SDS011;19141;48.980;8.410;2022-09-03T16:53:14;0.85;;;0.50;;
32788;SDS011;19141;48.980;8.410;2022-09-03T17:15:12;0.73;;;0.60;;
32788;SDS011;19141;48.980;8.410;2022-09-03T17:43:23;1.42;;;0.70;;
32788;SDS011;19141;48.980;8.410;2022-09-03T17:49:06;1.20;;;0.75;;
32788;SDS011;19141;48.980;8.410;2022-09-03T17:54:18;1.10;;;1.00;;
32788;SDS011;19141;48.980;8.410;2022-09-03T18:02:27;0.95;;;0.77;;
32788;SDS011;19141;48.980;8.410;2022-09-03T18:13:22;0.98;;;0.88;;
32788;SDS011;19141;48.980;8.410;2022-09-03T18:16:08;2.92;;;0.80;;
32788;SDS011;19141;48.980;8.410;2022-09-03T18:18:37;1.20;;;0.70;;
32788;SDS011;19141;48.980;8.410;2022-09-03T18:21:13;0.85;;;0.73;;
32788;SDS011;19141;48.980;8.410;2022-09-03T18:24:06;1.20;;;0.80;;
32788;SDS011;19141;48.980;8.410;2022-09-03T18:26:57;1.52;;;0.95;;
32788;SDS011;19141;48.980;8.410;2022-09-03T18:32:44;1.27;;;0.98;;
32788;SDS011;19141;48.980;8.410;2022-09-03T18:35:28;1.05;;;0.70;;
32788;SDS011;19141;48.980;8.410;2022-09-03T18:38:14;1.23;;;0.80;;
32788;SDS011;19141;48.980;8.410;2022-09-03T18:41:09;1.45;;;1.13;;
32788;SDS011;19141;48.980;8.410;2022-09-03T18:47:04;1.50;;;0.90;;
32788;SDS011;19141;48.980;8.410;2022-09-03T18:50:10;0.90;;;0.80;;
32788;SDS011;19141;48.980;8.410;2022-09-03T18:53:13;0.85;;;0.60;;
32788;SDS011;19141;48.980;8.410;2022-09-03T19:00:03;1.00;;;0.90;;
32788;SDS011;19141;48.980;8.410;2022-09-03T19:05:16;1.50;;;1.10;;
32788;SDS011;19141;48.980;8.410;2022-09-03T19:08:19;1.38;;;0.88;;
32788;SDS011;19141;48.980;8.410;2022-09-03T19:14:21;2.45;;;1.15;;
32788;SDS011;19141;48.980;8.410;2022-09-03T19:20:17;2.38;;;1.20;;
32788;SDS011;19141;48.980;8.410;2022-09-03T19:23:10;2.67;;;1.90;;
32788;SDS011;19141;48.980;8.410;2022-09-03T19:25:53;3.30;;;1.20;;
32788;SDS011;19141;48.980;8.410;2022-09-03T19:28:44;5.95;;;1.35;;
32788;SDS011;19141;48.980;8.410;2022-09-03T19:43:36;1.42;;;0.70;;
32788;SDS011;19141;48.980;8.410;2022-09-03T19:49:40;1.52;;;0.93;;
32788;SDS011;19141;48.980;8.410;2022-09-03T19:52:54;1.75;;;0.90;;
32788;SDS011;19141;48.980;8.410;2022-09-03T19:55:43;1.20;;;1.00;;
32788;SDS011;19141;48.980;8.410;2022-09-03T19:58:30;1.83;;;1.02;;
32788;SDS011;19141;48.980;8.410;2022-09-03T20:01:17;2.03;;;1.20;;
32788;SDS011;19141;48.980;8.410;2022-09-03T20:04:13;1.77;;;1.07;;
32788;SDS011;19141;48.980;8.410;2022-09-03T20:07:02;2.10;;;1.08;;
32788;SDS011;19141;48.980;8.410;2022-09-03T20:09:49;2.05;;;1.35;;
32788;SDS011;19141;48.980;8.410;2022-09-03T20:12:37;2.65;;;1.42;;
32788;SDS011;19141;48.980;8.410;2022-09-03T20:15:07;1.67;;;0.88;;
32788;SDS011;19141;48.980;8.410;2022-09-03T20:18:19;3.40;;;1.40;;
32788;SDS011;19141;48.980;8.410;2022-09-03T20:20:24;1.63;;;1.10;;
32788;SDS011;19141;48.980;8.410;2022-09-03T20:31:01;3.03;;;0.90;;
32788;SDS011;19141;48.980;8.410;2022-09-03T20:49:47;1.88;;;1.20;;
32788;SDS011;19141;48.980;8.410;2022-09-03T20:52:22;1.98;;;1.20;;
32788;SDS011;19141;48.980;8.410;2022-09-03T20:57:53;2.13;;;1.20;;
32788;SDS011;19141;48.980;8.410;2022-09-03T21:00:22;3.10;;;1.33;;
32788;SDS011;19141;48.980;8.410;2022-09-03T21:14:29;3.63;;;1.58;;
32788;SDS011;19141;48.980;8.410;2022-09-03T21:29:21;3.95;;;1.50;;
32788;SDS011;19141;48.980;8.410;2022-09-03T21:34:40;3.20;;;1.70;;
32788;SDS011;19141;48.980;8.410;2022-09-03T21:37:22;5.15;;;1.23;;
32788;SDS011;19141;48.980;8.410;2022-09-03T21:39:55;2.30;;;1.38;;
32788;SDS011;19141;48.980;8.410;2022-09-03T21:45:03;3.05;;;1.60;;
32788;SDS011;19141;48.980;8.410;2022-09-03T21:47:38;2.30;;;1.52;;
32788;SDS011;19141;48.980;8.410;2022-09-03T21:55:35;3.42;;;1.80;;
